sensor_id;sensor_type;location;lat;lon;timestamp;temperature;humidity
5280;DHT22;2663;53.588;10.010;2023-09-12T00:00:50;21.80;99.90
5280;DHT22;2663;53.588;10.010;2023-09-12T00:03:21;21.80;99.90
5280;DHT22;2663;53.588;10.010;2023-09-12T00:05:52;21.80;99.90
5280;DHT22;2663;53.588;10.010;2023-09-12T00:08:19;21.70;99.90
5280;DHT22;2663;53.588;10.010;2023-09-12T00:10:46;21.50;99.90
5280;DHT22;2663;53.588;10.010;2023-09-12T00:13:13;21.50;99.90
5280;DHT22;2663;53.588;10.010;2023-09-12T00:15:40;21.50;99.90
5280;DHT22;2663;53.588;10.010;2023-09-12T00:18:06;21.50;99.90
5280;DHT22;2663;53.588;10.010;2023-09-12T00:20:34;21.40;99.90
5280;DHT22;2663;53.588;10.010;2023-09-12T00:23:00;21.50;99.90
5280;DHT22;2663;53.588;10.010;2023-09-12T00:25:27;21.50;99.90
5280;DHT22;2663;53.588;10.010;2023-09-12T00:27:54;21.50;99.90
5280;DHT22;2663;53.588;10.010;2023-09-12T00:30:20;21.40;99.90
5280;DHT22;2663;53.588;10.010;2023-09-12T00:32:47;21.50;99.90
5280;DHT22;2663;53.588;10.010;2023-09-12T00:35:14;22.50;99.90
5280;DHT22;2663;53.588;10.010;2023-09-12T00:37:41;21.40;99.90
5280;DHT22;2663;53.588;10.010;2023-09-12T00:40:07;21.40;99.90
5280;DHT22;2663;53.588;10.010;2023-09-12T00:42:34;21.30;99.90
5280;DHT22;2663;53.588;10.010;2023-09-12T00:45:01;21.30;99.90
5280;DHT22;2663;53.588;10.010;2023-09-12T00:47:29;21.30;99.90
5280;DHT22;2663;53.588;10.010;2023-09-12T00:49:57;21.30;99.90
5280;DHT22;2663;53.588;10.010;2023-09-12T00:52:25;21.30;99.90
5280;DHT22;2663;53.588;10.010;2023-09-12T00:54:53;21.30;99.90
5280;DHT22;2663;53.588;10.010;2023-09-12T00:57:21;21.30;99.90
5280;DHT22;2663;53.588;10.010;2023-09-12T00:59:49;21.20;99.90
5280;DHT22;2663;53.588;10.010;2023-09-12T01:02:19;21.20;99.90
5280;DHT22;2663;53.588;10.010;2023-09-12T01:04:47;21.10;99.90
5280;DHT22;2663;53.588;10.010;2023-09-12T01:07:14;21.10;99.90
5280;DHT22;2663;53.588;10.010;2023-09-12T01:09:41;21.20;99.90
5280;DHT22;2663;53.588;10.010;2023-09-12T01:12:08;21.20;99.90
5280;DHT22;2663;53.588;10.010;2023-09-12T01:14:35;21.10;99.90
5280;DHT22;2663;53.588;10.010;2023-09-12T01:17:02;21.20;99.90
5280;DHT22;2663;53.588;10.010;2023-09-12T01:19:29;21.10;99.90
5280;DHT22;2663;53.588;10.010;2023-09-12T01:22:27;21.20;99.90
5280;DHT22;2663;53.588;10.010;2023-09-12T01:28:02;21.30;99.90
5280;DHT22;2663;53.588;10.010;2023-09-12T01:30:32;21.30;99.90
5280;DHT22;2663;53.588;10.010;2023-09-12T01:33:03;21.40;99.90
5280;DHT22;2663;53.588;10.010;2023-09-12T01:35:30;21.50;99.90
5280;DHT22;2663;53.588;10.010;2023-09-12T01:37:56;21.50;99.90
5280;DHT22;2663;53.588;10.010;2023-09-12T01:40:43;21.60;99.90
5280;DHT22;2663;53.588;10.010;2023-09-12T01:43:11;21.50;99.90
5280;DHT22;2663;53.588;10.010;2023-09-12T01:45:40;21.60;99.90
5280;DHT22;2663;53.588;10.010;2023-09-12T01:48:08;21.60;99.90
5280;DHT22;2663;53.588;10.010;2023-09-12T01:50:36;20.80;99.90
5280;DHT22;2663;53.588;10.010;2023-09-12T01:53:03;21.60;99.90
5280;DHT22;2663;53.588;10.010;2023-09-12T01:55:30;21.60;99.90
5280;DHT22;2663;53.588;10.010;2023-09-12T01:57:58;21.60;99.90
5280;DHT22;2663;53.588;10.010;2023-09-12T02:00:25;21.50;99.90
5280;DHT22;2663;53.588;10.010;2023-09-12T02:02:53;21.50;99.90
5280;DHT22;2663;53.588;10.010;2023-09-12T02:05:21;21.50;99.90
5280;DHT22;2663;53.588;10.010;2023-09-12T02:07:49;21.40;99.90
5280;DHT22;2663;53.588;10.010;2023-09-12T02:10:15;21.30;99.90
5280;DHT22;2663;53.588;10.010;2023-09-12T02:12:42;21.30;99.90
5280;DHT22;2663;53.588;10.010;2023-09-12T02:15:09;21.20;99.90
5280;DHT22;2663;53.588;10.010;2023-09-12T02:17:36;21.10;99.90
5280;DHT22;2663;53.588;10.010;2023-09-12T02:20:09;21.20;99.90
5280;DHT22;2663;53.588;10.010;2023-09-12T02:22:36;21.10;99.90
5280;DHT22;2663;53.588;10.010;2023-09-12T02:25:05;21.10;99.90
5280;DHT22;2663;53.588;10.010;2023-09-12T02:27:32;21.00;99.90
5280;DHT22;2663;53.588;10.010;2023-09-12T02:29:58;21.10;99.90
5280;DHT22;2663;53.588;10.010;2023-09-12T02:32:25;21.10;99.90
5280;DHT22;2663;53.588;10.010;2023-09-12T02:34:52;21.00;99.90
5280;DHT22;2663;53.588;10.010;2023-09-12T02:37:20;21.00;99.90
5280;DHT22;2663;53.588;10.010;2023-09-12T02:39:46;21.00;99.90
5280;DHT22;2663;53.588;10.010;2023-09-12T02:42:13;21.10;99.90
5280;DHT22;2663;53.588;10.010;2023-09-12T02:44:40;21.10;99.90
5280;DHT22;2663;53.588;10.010;2023-09-12T02:47:07;21.20;99.90
5280;DHT22;2663;53.588;10.010;2023-09-12T02:49:33;21.20;99.90
5280;DHT22;2663;53.588;10.010;2023-09-12T02:52:00;21.20;99.90
5280;DHT22;2663;53.588;10.010;2023-09-12T02:54:27;21.30;99.90
5280;DHT22;2663;53.588;10.010;2023-09-12T02:56:53;21.20;99.90
5280;DHT22;2663;53.588;10.010;2023-09-12T02:59:20;21.30;99.90
5280;DHT22;2663;53.588;10.010;2023-09-12T03:01:47;21.20;99.90
5280;DHT22;2663;53.588;10.010;2023-09-12T03:04:13;21.30;99.90
5280;DHT22;2663;53.588;10.010;2023-09-12T03:06:40;21.30;99.90
5280;DHT22;2663;53.588;10.010;2023-09-12T03:09:07;21.30;99.90
5280;DHT22;2663;53.588;10.010;2023-09-12T03:11:34;21.30;99.90
5280;DHT22;2663;53.588;10.010;2023-09-12T03:14:01;21.30;99.90
5280;DHT22;2663;53.588;10.010;2023-09-12T03:16:27;21.20;99.90
5280;DHT22;2663;53.588;10.010;2023-09-12T03:18:54;21.20;99.90
5280;DHT22;2663;53.588;10.010;2023-09-12T03:21:21;20.90;99.90
5280;DHT22;2663;53.588;10.010;2023-09-12T03:23:48;21.10;99.90
5280;DHT22;2663;53.588;10.010;2023-09-12T03:26:14;21.10;99.90
5280;DHT22;2663;53.588;10.010;2023-09-12T03:28:41;20.80;99.90
5280;DHT22;2663;53.588;10.010;2023-09-12T03:31:10;21.10;99.90
5280;DHT22;2663;53.588;10.010;2023-09-12T03:33:42;21.20;99.90
5280;DHT22;2663;53.588;10.010;2023-09-12T03:36:09;21.20;99.90
5280;DHT22;2663;53.588;10.010;2023-09-12T03:38:36;21.10;99.90
5280;DHT22;2663;53.588;10.010;2023-09-12T03:41:03;21.20;99.90
5280;DHT22;2663;53.588;10.010;2023-09-12T03:43:30;21.20;99.90
5280;DHT22;2663;53.588;10.010;2023-09-12T03:45:57;21.30;99.90
5280;DHT22;2663;53.588;10.010;2023-09-12T03:48:23;21.30;99.90
5280;DHT22;2663;53.588;10.010;2023-09-12T03:50:51;21.40;99.90
5280;DHT22;2663;53.588;10.010;2023-09-12T03:53:18;21.40;99.90
5280;DHT22;2663;53.588;10.010;2023-09-12T03:55:44;21.40;99.90
5280;DHT22;2663;53.588;10.010;2023-09-12T03:58:11;21.40;99.90
5280;DHT22;2663;53.588;10.010;2023-09-12T04:00:38;21.40;99.90
5280;DHT22;2663;53.588;10.010;2023-09-12T04:03:05;21.50;99.90
5280;DHT22;2663;53.588;10.010;2023-09-12T04:05:32;21.50;99.90
5280;DHT22;2663;53.588;10.010;2023-09-12T04:07:58;21.50;99.90
5280;DHT22;2663;53.588;10.010;2023-09-12T04:10:25;21.50;99.90
5280;DHT22;2663;53.588;10.010;2023-09-12T04:12:52;21.40;99.90
5280;DHT22;2663;53.588;10.010;2023-09-12T04:15:18;21.50;99.90
5280;DHT22;2663;53.588;10.010;2023-09-12T04:17:45;21.40;99.90
5280;DHT22;2663;53.588;10.010;2023-09-12T04:20:12;21.50;99.90
5280;DHT22;2663;53.588;10.010;2023-09-12T04:22:42;21.40;99.90
5280;DHT22;2663;53.588;10.010;2023-09-12T04:25:09;21.40;99.90
5280;DHT22;2663;53.588;10.010;2023-09-12T04:27:36;21.40;99.90
5280;DHT22;2663;53.588;10.010;2023-09-12T04:30:03;21.30;99.90
5280;DHT22;2663;53.588;10.010;2023-09-12T04:32:31;21.30;99.90
5280;DHT22;2663;53.588;10.010;2023-09-12T04:34:57;21.30;99.90
5280;DHT22;2663;53.588;10.010;2023-09-12T04:37:24;21.40;99.90
5280;DHT22;2663;53.588;10.010;2023-09-12T04:39:51;21.30;99.90
5280;DHT22;2663;53.588;10.010;2023-09-12T04:42:18;21.30;99.90
5280;DHT22;2663;53.588;10.010;2023-09-12T04:44:45;21.30;99.90
5280;DHT22;2663;53.588;10.010;2023-09-12T04:47:12;21.30;99.90
5280;DHT22;2663;53.588;10.010;2023-09-12T04:49:39;21.30;99.90
5280;DHT22;2663;53.588;10.010;2023-09-12T04:52:06;21.20;99.90
5280;DHT22;2663;53.588;10.010;2023-09-12T04:54:33;21.20;99.90
5280;DHT22;2663;53.588;10.010;2023-09-12T04:56:59;21.10;99.90
5280;DHT22;2663;53.588;10.010;2023-09-12T04:59:26;21.10;99.90
5280;DHT22;2663;53.588;10.010;2023-09-12T05:01:53;21.00;99.90
5280;DHT22;2663;53.588;10.010;2023-09-12T05:04:19;21.00;99.90
5280;DHT22;2663;53.588;10.010;2023-09-12T05:06:46;20.90;99.90
5280;DHT22;2663;53.588;10.010;2023-09-12T05:09:13;21.00;99.90
5280;DHT22;2663;53.588;10.010;2023-09-12T05:11:40;21.00;99.90
5280;DHT22;2663;53.588;10.010;2023-09-12T05:14:06;21.00;99.90
5280;DHT22;2663;53.588;10.010;2023-09-12T05:16:33;21.00;99.90
5280;DHT22;2663;53.588;10.010;2023-09-12T05:19:00;20.90;99.90
5280;DHT22;2663;53.588;10.010;2023-09-12T05:21:27;21.00;99.90
5280;DHT22;2663;53.588;10.010;2023-09-12T05:23:53;21.00;99.90
5280;DHT22;2663;53.588;10.010;2023-09-12T05:26:20;21.00;99.90
5280;DHT22;2663;53.588;10.010;2023-09-12T05:28:47;21.10;99.90
5280;DHT22;2663;53.588;10.010;2023-09-12T05:31:13;21.20;99.90
5280;DHT22;2663;53.588;10.010;2023-09-12T05:33:40;21.20;99.90
5280;DHT22;2663;53.588;10.010;2023-09-12T05:36:07;21.30;99.90
5280;DHT22;2663;53.588;10.010;2023-09-12T05:38:34;21.30;99.90
5280;DHT22;2663;53.588;10.010;2023-09-12T05:41:00;21.30;99.90
5280;DHT22;2663;53.588;10.010;2023-09-12T05:43:28;21.30;99.90
5280;DHT22;2663;53.588;10.010;2023-09-12T05:45:55;21.30;99.90
5280;DHT22;2663;53.588;10.010;2023-09-12T05:48:24;21.30;99.90
5280;DHT22;2663;53.588;10.010;2023-09-12T05:50:50;21.30;99.90
5280;DHT22;2663;53.588;10.010;2023-09-12T05:53:17;21.30;99.90
5280;DHT22;2663;53.588;10.010;2023-09-12T05:55:44;21.40;99.90
5280;DHT22;2663;53.588;10.010;2023-09-12T05:58:11;21.40;99.90
5280;DHT22;2663;53.588;10.010;2023-09-12T06:00:38;21.30;99.90
5280;DHT22;2663;53.588;10.010;2023-09-12T06:03:05;21.40;99.90
5280;DHT22;2663;53.588;10.010;2023-09-12T06:05:32;21.40;99.90
5280;DHT22;2663;53.588;10.010;2023-09-12T06:07:59;21.40;99.90
5280;DHT22;2663;53.588;10.010;2023-09-12T06:10:26;21.40;99.90
5280;DHT22;2663;53.588;10.010;2023-09-12T06:12:53;21.50;99.90
5280;DHT22;2663;53.588;10.010;2023-09-12T06:15:20;21.50;99.90
5280;DHT22;2663;53.588;10.010;2023-09-12T06:17:46;21.50;99.90
5280;DHT22;2663;53.588;10.010;2023-09-12T06:20:13;21.50;99.90
5280;DHT22;2663;53.588;10.010;2023-09-12T06:22:40;21.50;99.90
5280;DHT22;2663;53.588;10.010;2023-09-12T06:25:07;21.50;99.90
5280;DHT22;2663;53.588;10.010;2023-09-12T06:27:34;21.50;99.90
5280;DHT22;2663;53.588;10.010;2023-09-12T06:30:01;21.50;99.90
5280;DHT22;2663;53.588;10.010;2023-09-12T06:32:27;21.50;99.90
5280;DHT22;2663;53.588;10.010;2023-09-12T06:34:54;21.40;99.90
5280;DHT22;2663;53.588;10.010;2023-09-12T06:37:21;21.50;99.90
5280;DHT22;2663;53.588;10.010;2023-09-12T06:39:50;21.50;99.90
5280;DHT22;2663;53.588;10.010;2023-09-12T06:42:18;21.50;99.90
5280;DHT22;2663;53.588;10.010;2023-09-12T06:44:45;21.50;99.90
5280;DHT22;2663;53.588;10.010;2023-09-12T06:47:12;21.50;99.90
5280;DHT22;2663;53.588;10.010;2023-09-12T06:49:39;21.50;99.90
5280;DHT22;2663;53.588;10.010;2023-09-12T06:52:05;21.50;99.90
5280;DHT22;2663;53.588;10.010;2023-09-12T06:54:33;21.60;99.90
5280;DHT22;2663;53.588;10.010;2023-09-12T06:57:00;21.60;99.90
5280;DHT22;2663;53.588;10.010;2023-09-12T06:59:26;21.50;99.90
5280;DHT22;2663;53.588;10.010;2023-09-12T07:01:53;21.50;99.90
5280;DHT22;2663;53.588;10.010;2023-09-12T07:04:20;21.50;99.90
5280;DHT22;2663;53.588;10.010;2023-09-12T07:06:47;21.60;99.90
5280;DHT22;2663;53.588;10.010;2023-09-12T07:09:14;21.70;99.90
5280;DHT22;2663;53.588;10.010;2023-09-12T07:11:42;21.70;99.90
5280;DHT22;2663;53.588;10.010;2023-09-12T07:14:09;22.30;99.90
5280;DHT22;2663;53.588;10.010;2023-09-12T07:16:36;21.80;99.90
5280;DHT22;2663;53.588;10.010;2023-09-12T07:19:03;21.90;99.90
5280;DHT22;2663;53.588;10.010;2023-09-12T07:21:31;21.80;99.90
5280;DHT22;2663;53.588;10.010;2023-09-12T07:23:58;21.80;99.90
5280;DHT22;2663;53.588;10.010;2023-09-12T07:26:25;21.90;99.90
5280;DHT22;2663;53.588;10.010;2023-09-12T07:28:54;21.90;99.90
5280;DHT22;2663;53.588;10.010;2023-09-12T07:31:21;21.80;99.90
5280;DHT22;2663;53.588;10.010;2023-09-12T07:33:48;21.80;99.90
5280;DHT22;2663;53.588;10.010;2023-09-12T07:36:15;21.80;99.90
5280;DHT22;2663;53.588;10.010;2023-09-12T07:38:41;21.80;99.90
5280;DHT22;2663;53.588;10.010;2023-09-12T07:41:09;21.80;99.90
5280;DHT22;2663;53.588;10.010;2023-09-12T07:43:36;21.90;99.90
5280;DHT22;2663;53.588;10.010;2023-09-12T07:46:02;21.90;99.90
5280;DHT22;2663;53.588;10.010;2023-09-12T07:48:30;21.90;99.90
5280;DHT22;2663;53.588;10.010;2023-09-12T07:50:57;21.90;99.90
5280;DHT22;2663;53.588;10.010;2023-09-12T07:53:23;21.80;99.90
5280;DHT22;2663;53.588;10.010;2023-09-12T07:55:50;21.70;99.90
5280;DHT22;2663;53.588;10.010;2023-09-12T07:58:18;21.80;99.90
5280;DHT22;2663;53.588;10.010;2023-09-12T08:00:50;21.80;99.90
5280;DHT22;2663;53.588;10.010;2023-09-12T08:03:17;22.20;99.90
5280;DHT22;2663;53.588;10.010;2023-09-12T08:05:54;21.90;99.90
5280;DHT22;2663;53.588;10.010;2023-09-12T08:08:21;21.90;99.90
5280;DHT22;2663;53.588;10.010;2023-09-12T08:10:48;21.90;99.90
5280;DHT22;2663;53.588;10.010;2023-09-12T08:13:14;22.00;99.90
5280;DHT22;2663;53.588;10.010;2023-09-12T08:15:41;22.00;99.90
5280;DHT22;2663;53.588;10.010;2023-09-12T08:18:08;22.00;99.90
5280;DHT22;2663;53.588;10.010;2023-09-12T08:20:35;22.10;99.90
5280;DHT22;2663;53.588;10.010;2023-09-12T08:23:02;22.10;99.90
5280;DHT22;2663;53.588;10.010;2023-09-12T08:25:28;22.20;99.90
5280;DHT22;2663;53.588;10.010;2023-09-12T08:27:55;22.30;99.90
5280;DHT22;2663;53.588;10.010;2023-09-12T08:30:22;22.20;99.90
5280;DHT22;2663;53.588;10.010;2023-09-12T08:32:49;22.30;99.90
5280;DHT22;2663;53.588;10.010;2023-09-12T08:35:15;22.20;99.90
5280;DHT22;2663;53.588;10.010;2023-09-12T08:37:42;22.20;99.90
5280;DHT22;2663;53.588;10.010;2023-09-12T08:40:10;22.30;99.90
5280;DHT22;2663;53.588;10.010;2023-09-12T08:42:42;22.40;99.90
5280;DHT22;2663;53.588;10.010;2023-09-12T08:45:14;22.40;99.90
5280;DHT22;2663;53.588;10.010;2023-09-12T08:47:48;22.40;99.90
5280;DHT22;2663;53.588;10.010;2023-09-12T08:50:16;22.40;99.90
5280;DHT22;2663;53.588;10.010;2023-09-12T08:52:45;22.40;99.90
5280;DHT22;2663;53.588;10.010;2023-09-12T08:55:31;22.50;99.90
5280;DHT22;2663;53.588;10.010;2023-09-12T08:58:02;22.60;99.90
5280;DHT22;2663;53.588;10.010;2023-09-12T09:00:29;22.50;99.90
5280;DHT22;2663;53.588;10.010;2023-09-12T09:02:57;22.60;99.90
5280;DHT22;2663;53.588;10.010;2023-09-12T09:05:24;22.40;99.90
5280;DHT22;2663;53.588;10.010;2023-09-12T09:07:52;22.30;99.90
5280;DHT22;2663;53.588;10.010;2023-09-12T09:10:21;22.40;99.90
5280;DHT22;2663;53.588;10.010;2023-09-12T09:13:03;22.50;99.90
5280;DHT22;2663;53.588;10.010;2023-09-12T09:15:33;22.50;99.90
5280;DHT22;2663;53.588;10.010;2023-09-12T09:18:02;22.60;99.90
5280;DHT22;2663;53.588;10.010;2023-09-12T09:20:32;22.70;99.90
5280;DHT22;2663;53.588;10.010;2023-09-12T09:23:05;22.80;99.90
5280;DHT22;2663;53.588;10.010;2023-09-12T09:25:33;22.90;99.90
5280;DHT22;2663;53.588;10.010;2023-09-12T09:28:04;23.00;99.90
5280;DHT22;2663;53.588;10.010;2023-09-12T09:30:43;22.90;99.90
5280;DHT22;2663;53.588;10.010;2023-09-12T09:33:10;22.70;99.90
5280;DHT22;2663;53.588;10.010;2023-09-12T09:35:38;22.60;99.90
5280;DHT22;2663;53.588;10.010;2023-09-12T09:38:08;22.70;99.90
5280;DHT22;2663;53.588;10.010;2023-09-12T09:40:35;22.80;99.90
5280;DHT22;2663;53.588;10.010;2023-09-12T09:43:03;22.90;99.90
5280;DHT22;2663;53.588;10.010;2023-09-12T09:45:30;22.80;99.90
5280;DHT22;2663;53.588;10.010;2023-09-12T09:48:04;22.90;99.90
5280;DHT22;2663;53.588;10.010;2023-09-12T09:50:34;22.90;99.90
5280;DHT22;2663;53.588;10.010;2023-09-12T09:53:04;22.90;99.90
5280;DHT22;2663;53.588;10.010;2023-09-12T09:55:33;22.90;99.90
5280;DHT22;2663;53.588;10.010;2023-09-12T09:58:00;23.00;99.90
5280;DHT22;2663;53.588;10.010;2023-09-12T10:00:28;23.00;99.90
5280;DHT22;2663;53.588;10.010;2023-09-12T10:02:55;22.90;99.90
5280;DHT22;2663;53.588;10.010;2023-09-12T10:05:23;22.80;99.90
5280;DHT22;2663;53.588;10.010;2023-09-12T10:07:50;22.80;99.90
5280;DHT22;2663;53.588;10.010;2023-09-12T10:10:24;22.80;99.90
5280;DHT22;2663;53.588;10.010;2023-09-12T10:12:56;22.80;99.90
5280;DHT22;2663;53.588;10.010;2023-09-12T10:15:23;22.70;99.90
5280;DHT22;2663;53.588;10.010;2023-09-12T10:17:59;22.70;99.90
5280;DHT22;2663;53.588;10.010;2023-09-12T10:20:48;22.70;99.90
5280;DHT22;2663;53.588;10.010;2023-09-12T10:23:26;22.80;99.90
5280;DHT22;2663;53.588;10.010;2023-09-12T10:25:55;22.80;99.90
5280;DHT22;2663;53.588;10.010;2023-09-12T10:28:24;22.70;99.90
5280;DHT22;2663;53.588;10.010;2023-09-12T10:30:52;22.00;99.90
5280;DHT22;2663;53.588;10.010;2023-09-12T10:33:20;21.70;99.90
5280;DHT22;2663;53.588;10.010;2023-09-12T10:35:48;22.40;99.90
5280;DHT22;2663;53.588;10.010;2023-09-12T10:38:16;22.40;99.90
5280;DHT22;2663;53.588;10.010;2023-09-12T10:40:46;22.40;99.90
5280;DHT22;2663;53.588;10.010;2023-09-12T10:43:14;22.40;99.90
5280;DHT22;2663;53.588;10.010;2023-09-12T10:45:41;22.40;99.90
5280;DHT22;2663;53.588;10.010;2023-09-12T10:48:10;22.50;99.90
5280;DHT22;2663;53.588;10.010;2023-09-12T10:50:39;22.40;99.90
5280;DHT22;2663;53.588;10.010;2023-09-12T10:53:13;22.40;99.90
5280;DHT22;2663;53.588;10.010;2023-09-12T10:55:41;22.40;99.90
5280;DHT22;2663;53.588;10.010;2023-09-12T10:58:09;22.40;99.90
5280;DHT22;2663;53.588;10.010;2023-09-12T11:00:37;22.50;99.90
5280;DHT22;2663;53.588;10.010;2023-09-12T11:05:55;22.40;99.90
5280;DHT22;2663;53.588;10.010;2023-09-12T11:08:22;22.30;99.90
5280;DHT22;2663;53.588;10.010;2023-09-12T11:11:20;22.30;99.90
5280;DHT22;2663;53.588;10.010;2023-09-12T11:14:03;22.30;99.90
5280;DHT22;2663;53.588;10.010;2023-09-12T11:16:30;22.30;99.90
5280;DHT22;2663;53.588;10.010;2023-09-12T11:19:14;22.40;99.90
5280;DHT22;2663;53.588;10.010;2023-09-12T11:21:46;22.40;99.90
5280;DHT22;2663;53.588;10.010;2023-09-12T11:24:14;22.40;99.90
5280;DHT22;2663;53.588;10.010;2023-09-12T11:26:58;22.40;99.90
5280;DHT22;2663;53.588;10.010;2023-09-12T11:29:34;22.40;99.90
5280;DHT22;2663;53.588;10.010;2023-09-12T11:32:02;22.40;99.90
5280;DHT22;2663;53.588;10.010;2023-09-12T11:34:37;22.50;99.90
5280;DHT22;2663;53.588;10.010;2023-09-12T11:37:05;22.40;99.90
5280;DHT22;2663;53.588;10.010;2023-09-12T11:39:34;22.40;99.90
5280;DHT22;2663;53.588;10.010;2023-09-12T11:42:03;22.40;99.90
5280;DHT22;2663;53.588;10.010;2023-09-12T11:44:31;22.40;99.90
5280;DHT22;2663;53.588;10.010;2023-09-12T11:47:01;22.30;99.90
5280;DHT22;2663;53.588;10.010;2023-09-12T11:49:37;22.40;99.90
5280;DHT22;2663;53.588;10.010;2023-09-12T11:52:11;22.30;99.90
5280;DHT22;2663;53.588;10.010;2023-09-12T11:54:44;22.30;99.90
5280;DHT22;2663;53.588;10.010;2023-09-12T11:57:13;22.30;99.90
5280;DHT22;2663;53.588;10.010;2023-09-12T11:59:45;22.30;99.90
5280;DHT22;2663;53.588;10.010;2023-09-12T12:02:15;22.30;99.90
5280;DHT22;2663;53.588;10.010;2023-09-12T12:04:42;22.50;99.90
5280;DHT22;2663;53.588;10.010;2023-09-12T12:07:10;22.50;99.90
5280;DHT22;2663;53.588;10.010;2023-09-12T12:09:37;22.50;99.90
5280;DHT22;2663;53.588;10.010;2023-09-12T12:12:13;22.50;99.90
5280;DHT22;2663;53.588;10.010;2023-09-12T12:14:41;22.40;99.90
5280;DHT22;2663;53.588;10.010;2023-09-12T12:17:09;22.40;99.90
5280;DHT22;2663;53.588;10.010;2023-09-12T12:19:37;22.50;99.90
5280;DHT22;2663;53.588;10.010;2023-09-12T12:22:05;22.40;99.90
5280;DHT22;2663;53.588;10.010;2023-09-12T12:24:43;22.30;99.90
5280;DHT22;2663;53.588;10.010;2023-09-12T12:27:11;22.20;99.90
5280;DHT22;2663;53.588;10.010;2023-09-12T12:29:38;22.20;99.90
5280;DHT22;2663;53.588;10.010;2023-09-12T12:32:07;22.10;99.90
5280;DHT22;2663;53.588;10.010;2023-09-12T12:34:36;22.30;99.90
5280;DHT22;2663;53.588;10.010;2023-09-12T12:37:29;22.50;99.90
5280;DHT22;2663;53.588;10.010;2023-09-12T12:40:00;22.60;99.90
5280;DHT22;2663;53.588;10.010;2023-09-12T12:42:34;22.40;99.90
5280;DHT22;2663;53.588;10.010;2023-09-12T12:45:20;22.80;99.90
5280;DHT22;2663;53.588;10.010;2023-09-12T12:47:57;22.80;99.90
5280;DHT22;2663;53.588;10.010;2023-09-12T12:50:24;22.80;99.90
5280;DHT22;2663;53.588;10.010;2023-09-12T12:52:51;22.90;99.90
5280;DHT22;2663;53.588;10.010;2023-09-12T12:55:19;22.70;99.90
5280;DHT22;2663;53.588;10.010;2023-09-12T12:57:48;22.80;99.90
5280;DHT22;2663;53.588;10.010;2023-09-12T13:00:16;22.80;99.90
5280;DHT22;2663;53.588;10.010;2023-09-12T13:02:44;22.70;99.90
5280;DHT22;2663;53.588;10.010;2023-09-12T13:05:26;22.60;99.90
5280;DHT22;2663;53.588;10.010;2023-09-12T13:07:53;22.70;99.90
5280;DHT22;2663;53.588;10.010;2023-09-12T13:10:21;22.70;99.90
5280;DHT22;2663;53.588;10.010;2023-09-12T13:12:48;22.70;99.90
5280;DHT22;2663;53.588;10.010;2023-09-12T13:15:16;22.60;99.90
5280;DHT22;2663;53.588;10.010;2023-09-12T13:17:44;22.60;99.90
5280;DHT22;2663;53.588;10.010;2023-09-12T13:20:11;22.60;99.90
5280;DHT22;2663;53.588;10.010;2023-09-12T13:22:38;22.40;99.90
5280;DHT22;2663;53.588;10.010;2023-09-12T13:25:05;22.40;99.90
5280;DHT22;2663;53.588;10.010;2023-09-12T13:27:32;22.40;99.90
5280;DHT22;2663;53.588;10.010;2023-09-12T13:30:00;22.40;99.90
5280;DHT22;2663;53.588;10.010;2023-09-12T13:32:26;22.50;99.90
5280;DHT22;2663;53.588;10.010;2023-09-12T13:34:53;22.50;99.90
5280;DHT22;2663;53.588;10.010;2023-09-12T13:37:20;22.50;99.90
5280;DHT22;2663;53.588;10.010;2023-09-12T13:39:48;22.50;99.90
5280;DHT22;2663;53.588;10.010;2023-09-12T13:42:16;22.60;99.90
5280;DHT22;2663;53.588;10.010;2023-09-12T13:44:49;22.70;99.90
5280;DHT22;2663;53.588;10.010;2023-09-12T13:47:16;22.80;99.90
5280;DHT22;2663;53.588;10.010;2023-09-12T13:49:50;22.90;99.90
5280;DHT22;2663;53.588;10.010;2023-09-12T13:52:20;22.90;99.90
5280;DHT22;2663;53.588;10.010;2023-09-12T13:54:47;23.20;99.90
5280;DHT22;2663;53.588;10.010;2023-09-12T13:57:16;22.70;99.90
5280;DHT22;2663;53.588;10.010;2023-09-12T13:59:43;22.70;99.90
5280;DHT22;2663;53.588;10.010;2023-09-12T14:02:12;22.70;99.90
5280;DHT22;2663;53.588;10.010;2023-09-12T14:04:39;22.80;99.90
5280;DHT22;2663;53.588;10.010;2023-09-12T14:07:08;22.70;99.90
5280;DHT22;2663;53.588;10.010;2023-09-12T14:09:35;22.50;99.90
5280;DHT22;2663;53.588;10.010;2023-09-12T14:12:02;22.40;99.90
5280;DHT22;2663;53.588;10.010;2023-09-12T14:14:32;22.40;99.90
5280;DHT22;2663;53.588;10.010;2023-09-12T14:16:59;22.50;99.90
5280;DHT22;2663;53.588;10.010;2023-09-12T14:19:27;22.50;99.90
5280;DHT22;2663;53.588;10.010;2023-09-12T14:21:55;22.60;99.90
5280;DHT22;2663;53.588;10.010;2023-09-12T14:24:23;22.80;99.90
5280;DHT22;2663;53.588;10.010;2023-09-12T14:26:51;22.90;99.90
5280;DHT22;2663;53.588;10.010;2023-09-12T14:29:18;22.90;99.90
5280;DHT22;2663;53.588;10.010;2023-09-12T14:31:46;22.80;99.90
5280;DHT22;2663;53.588;10.010;2023-09-12T14:34:18;22.00;99.90
5280;DHT22;2663;53.588;10.010;2023-09-12T14:36:45;23.10;99.90
5280;DHT22;2663;53.588;10.010;2023-09-12T14:39:12;22.90;99.90
5280;DHT22;2663;53.588;10.010;2023-09-12T14:41:40;22.80;99.90
5280;DHT22;2663;53.588;10.010;2023-09-12T14:44:07;23.00;99.90
5280;DHT22;2663;53.588;10.010;2023-09-12T14:46:34;23.40;99.90
5280;DHT22;2663;53.588;10.010;2023-09-12T14:49:01;23.60;99.90
5280;DHT22;2663;53.588;10.010;2023-09-12T14:51:29;23.30;99.90
5280;DHT22;2663;53.588;10.010;2023-09-12T14:54:00;23.40;99.90
5280;DHT22;2663;53.588;10.010;2023-09-12T14:56:27;23.40;99.90
5280;DHT22;2663;53.588;10.010;2023-09-12T14:58:54;23.30;99.90
5280;DHT22;2663;53.588;10.010;2023-09-12T15:01:20;23.40;99.90
5280;DHT22;2663;53.588;10.010;2023-09-12T15:03:47;23.20;99.90
5280;DHT22;2663;53.588;10.010;2023-09-12T15:06:14;23.20;99.90
5280;DHT22;2663;53.588;10.010;2023-09-12T15:08:41;23.40;99.90
5280;DHT22;2663;53.588;10.010;2023-09-12T15:11:08;23.30;99.90
5280;DHT22;2663;53.588;10.010;2023-09-12T15:13:34;23.30;99.90
5280;DHT22;2663;53.588;10.010;2023-09-12T15:16:02;23.40;99.90
5280;DHT22;2663;53.588;10.010;2023-09-12T15:18:30;23.60;99.90
5280;DHT22;2663;53.588;10.010;2023-09-12T15:20:57;23.60;99.90
5280;DHT22;2663;53.588;10.010;2023-09-12T15:23:25;23.60;99.90
5280;DHT22;2663;53.588;10.010;2023-09-12T15:25:53;23.60;99.90
5280;DHT22;2663;53.588;10.010;2023-09-12T15:28:19;23.60;99.90
5280;DHT22;2663;53.588;10.010;2023-09-12T15:30:46;23.50;99.90
5280;DHT22;2663;53.588;10.010;2023-09-12T15:33:13;23.60;99.90
5280;DHT22;2663;53.588;10.010;2023-09-12T15:35:40;23.50;99.90
5280;DHT22;2663;53.588;10.010;2023-09-12T15:38:07;23.60;99.90
5280;DHT22;2663;53.588;10.010;2023-09-12T15:40:34;23.70;99.90
5280;DHT22;2663;53.588;10.010;2023-09-12T15:43:01;23.70;99.90
5280;DHT22;2663;53.588;10.010;2023-09-12T15:45:47;23.70;99.90
5280;DHT22;2663;53.588;10.010;2023-09-12T15:48:17;23.70;99.90
5280;DHT22;2663;53.588;10.010;2023-09-12T15:50:44;23.60;99.90
5280;DHT22;2663;53.588;10.010;2023-09-12T15:53:11;23.40;99.90
5280;DHT22;2663;53.588;10.010;2023-09-12T15:55:37;23.30;99.90
5280;DHT22;2663;53.588;10.010;2023-09-12T15:58:05;23.40;99.90